Terminal Aerodrome Forecast
Issued by NWS

Home | Current Version | Previous Version | Text Only | Print | Product List | Glossary On
Versions: 1 2 3 4 5 6 7 8 9 10 11 12 13 14
000
FTUS43 KDVN 221300 AAA
TAFCID
TAF AMD
KCID 221309Z 2213/2312 11006KT P6SM SKC
      TEMPO 2213/2214 5SM BR
     FM221630 15012KT P6SM SKC
     FM230000 14007KT P6SM SCT100
     FM230800 15008KT P6SM VCSH BKN040=

USA.gov is the U.S. government's official web portal to all federal, state and local government web resources and services.